Time;durP1;ratioP1;P1;durP2;ratioP2;P2;SDS_P1;SDS_P2;PMS_P1;PMS_P2;Temp;Humidity;BMP_temperature;BMP_pressure;BME280_temperature;BME280_humidity;BME280_pressure;Samples;Min_cycle;Max_cycle;Signal;HPM_P1;HPM_P2
2023/06/10 00:01:18;;;;;;;;;;;24.00;99.90;;;;;;4592473;19;19923;-23
2023/06/10 00:02:50;;;;;;;;;;;24.00;99.90;;;;;;4592476;19;19915;-22
2023/06/10 00:04:22;;;;;;;;;;;24.00;99.90;;;;;;4591218;19;19985;-23
2023/06/10 00:05:53;;;;;;;;;;;24.00;99.90;;;;;;4592018;19;19916;-23
2023/06/10 00:07:25;;;;;;;;;;;23.90;99.90;;;;;;4591719;19;19915;-23
2023/06/10 00:08:55;;;;;;;;;;;24.00;99.90;;;;;;4592426;19;19919;-24
2023/06/10 00:10:27;;;;;;;;;;;23.90;99.90;;;;;;4592523;19;19915;-25
2023/06/10 00:12:00;;;;;;;;;;;23.90;99.90;;;;;;4591247;19;19915;-23
2023/06/10 00:13:31;;;;;;;;;;;23.90;99.90;;;;;;4591470;19;19915;-29
2023/06/10 00:15:04;;;;;;;;;;;23.90;99.90;;;;;;4591055;19;19941;-26
2023/06/10 00:16:35;;;;;;;;;;;23.90;99.90;;;;;;4592623;19;19911;-23
2023/06/10 00:18:09;;;;;;;;;;;23.90;99.90;;;;;;4592159;19;19914;-24
2023/06/10 00:19:41;;;;;;;;;;;23.90;99.90;;;;;;4592055;19;19915;-23
2023/06/10 00:21:13;;;;;;;;;;;23.90;99.90;;;;;;4591930;19;19930;-22
2023/06/10 00:22:45;;;;;;;;;;;23.90;99.90;;;;;;4592463;19;20345;-24
2023/06/10 00:24:17;;;;;;;;;;;23.90;99.90;;;;;;4591616;19;19922;-25
2023/06/10 00:25:48;;;;;;;;;;;23.90;99.90;;;;;;4592053;19;19915;-24
2023/06/10 00:27:19;;;;;;;;;;;23.90;99.90;;;;;;4591967;19;20327;-26
2023/06/10 00:28:50;;;;;;;;;;;23.90;99.90;;;;;;4591782;19;19911;-23
2023/06/10 00:30:21;;;;;;;;;;;23.90;99.90;;;;;;4591841;19;20318;-23
2023/06/10 00:31:57;;;;;;;;;;;23.90;99.90;;;;;;4590916;19;19922;-27
2023/06/10 00:33:29;;;;;;;;;;;23.90;99.90;;;;;;4590886;19;19915;-22
2023/06/10 00:35:00;;;;;;;;;;;23.90;99.90;;;;;;4591090;19;20388;-22
2023/06/10 00:36:31;;;;;;;;;;;23.90;99.90;;;;;;4592214;19;19911;-24
2023/06/10 00:38:02;;;;;;;;;;;23.90;99.90;;;;;;4590698;19;19911;-24
2023/06/10 00:39:33;;;;;;;;;;;23.90;99.90;;;;;;4591243;19;19911;-24
2023/06/10 00:41:04;;;;;;;;;;;23.90;99.90;;;;;;4591968;19;20280;-23
2023/06/10 00:42:35;;;;;;;;;;;23.90;99.90;;;;;;4591774;19;19922;-24
2023/06/10 00:44:06;;;;;;;;;;;23.90;99.90;;;;;;4590389;19;19914;-24
2023/06/10 00:45:37;;;;;;;;;;;23.90;99.90;;;;;;4591529;19;19923;-23
2023/06/10 00:47:08;;;;;;;;;;;23.90;99.90;;;;;;4591715;19;19918;-23
2023/06/10 00:48:39;;;;;;;;;;;23.90;99.90;;;;;;4591704;19;19928;-25
2023/06/10 00:50:10;;;;;;;;;;;23.90;99.90;;;;;;4590763;19;19971;-24
2023/06/10 00:51:41;;;;;;;;;;;23.80;99.90;;;;;;4591750;19;19941;-27
2023/06/10 00:53:12;;;;;;;;;;;23.80;99.90;;;;;;4590993;19;19927;-23
2023/06/10 00:54:43;;;;;;;;;;;23.80;99.90;;;;;;4590307;19;19915;-24
2023/06/10 00:56:15;;;;;;;;;;;23.80;99.90;;;;;;4591334;19;19935;-27
2023/06/10 00:57:48;;;;;;;;;;;23.80;99.90;;;;;;4590968;19;19911;-28
2023/06/10 00:59:19;;;;;;;;;;;23.80;99.90;;;;;;4590512;19;19935;-26
2023/06/10 01:00:50;;;;;;;;;;;23.80;99.90;;;;;;4591117;19;19915;-24
2023/06/10 01:02:21;;;;;;;;;;;23.80;99.90;;;;;;4591466;19;19918;-25
2023/06/10 01:03:53;;;;;;;;;;;23.80;99.90;;;;;;4591651;19;19929;-26
2023/06/10 01:05:25;;;;;;;;;;;23.80;99.90;;;;;;4588503;19;19919;-25
2023/06/10 01:07:14;;;;;;;;;;;23.80;99.90;;;;;;4588916;19;19939;-25
2023/06/10 01:09:06;;;;;;;;;;;23.80;99.90;;;;;;4591432;19;19929;-26
2023/06/10 01:10:58;;;;;;;;;;;23.80;99.90;;;;;;4588958;19;19931;-23
2023/06/10 01:12:32;;;;;;;;;;;23.80;99.90;;;;;;4589326;19;19919;-22
2023/06/10 01:14:03;;;;;;;;;;;23.80;99.90;;;;;;4588418;19;19925;-26
2023/06/10 01:15:35;;;;;;;;;;;23.80;99.90;;;;;;4587817;19;19994;-26
2023/06/10 01:17:06;;;;;;;;;;;23.80;99.90;;;;;;4587057;19;19922;-25
2023/06/10 01:18:39;;;;;;;;;;;23.70;99.90;;;;;;4588813;19;19979;-23
2023/06/10 01:20:11;;;;;;;;;;;23.80;99.90;;;;;;4588712;19;19978;-23
2023/06/10 01:21:44;;;;;;;;;;;23.70;99.90;;;;;;4588659;19;19923;-23
2023/06/10 01:23:15;;;;;;;;;;;23.80;99.90;;;;;;4588272;19;19918;-23
2023/06/10 01:24:50;;;;;;;;;;;23.70;99.90;;;;;;4589045;19;20088;-24
2023/06/10 01:26:22;;;;;;;;;;;23.70;99.90;;;;;;4588170;19;19931;-28
2023/06/10 01:27:58;;;;;;;;;;;23.70;99.90;;;;;;4587771;19;20257;-25
2023/06/10 01:29:37;;;;;;;;;;;23.70;99.90;;;;;;4587566;19;19961;-28
2023/06/10 01:31:15;;;;;;;;;;;23.70;99.90;;;;;;4588241;19;19915;-23
2023/06/10 01:32:47;;;;;;;;;;;23.70;99.90;;;;;;4588699;19;19919;-24
2023/06/10 01:34:19;;;;;;;;;;;23.70;99.90;;;;;;4588385;19;19918;-22
2023/06/10 01:35:50;;;;;;;;;;;23.70;99.90;;;;;;4588022;19;19919;-24
2023/06/10 01:37:21;;;;;;;;;;;23.70;99.90;;;;;;4588912;19;19915;-28
2023/06/10 01:38:52;;;;;;;;;;;23.70;99.90;;;;;;4587991;19;20369;-23
2023/06/10 01:40:24;;;;;;;;;;;23.70;99.90;;;;;;4588460;19;19915;-24
2023/06/10 01:41:57;;;;;;;;;;;23.70;99.90;;;;;;4588486;19;19918;-23
2023/06/10 01:43:28;;;;;;;;;;;23.70;99.90;;;;;;4589043;19;19922;-24
2023/06/10 01:44:59;;;;;;;;;;;23.70;99.90;;;;;;4588181;19;19919;-23
2023/06/10 01:46:30;;;;;;;;;;;23.70;99.90;;;;;;4588106;19;19923;-26
2023/06/10 01:48:01;;;;;;;;;;;23.70;99.90;;;;;;4588018;19;19922;-24
2023/06/10 01:49:32;;;;;;;;;;;23.70;99.90;;;;;;4589611;19;20425;-24
2023/06/10 01:51:03;;;;;;;;;;;23.70;99.90;;;;;;4588695;19;19930;-25
2023/06/10 01:52:35;;;;;;;;;;;23.70;99.90;;;;;;4588387;19;19951;-22
2023/06/10 01:54:06;;;;;;;;;;;23.70;99.90;;;;;;4588978;19;19915;-25
2023/06/10 01:55:39;;;;;;;;;;;23.80;99.90;;;;;;4587383;19;19919;-23
2023/06/10 01:57:10;;;;;;;;;;;23.80;99.90;;;;;;4587834;19;20325;-23
2023/06/10 01:58:41;;;;;;;;;;;23.90;99.90;;;;;;4590494;19;19964;-26
2023/06/10 02:00:13;;;;;;;;;;;24.00;99.90;;;;;;4591221;19;19911;-23
2023/06/10 02:01:46;;;;;;;;;;;24.10;99.90;;;;;;4590501;19;19911;-23
2023/06/10 02:03:18;;;;;;;;;;;24.10;99.90;;;;;;4590781;19;19914;-21
2023/06/10 02:04:49;;;;;;;;;;;24.20;99.90;;;;;;4591005;19;19975;-22
2023/06/10 02:06:20;;;;;;;;;;;24.30;99.90;;;;;;4590292;19;20330;-25
2023/06/10 02:07:51;;;;;;;;;;;24.40;99.90;;;;;;4590423;19;19943;-27
2023/06/10 02:09:22;;;;;;;;;;;24.40;99.90;;;;;;4590818;19;19923;-25
2023/06/10 02:10:54;;;;;;;;;;;24.60;99.90;;;;;;4591175;19;20265;-25
2023/06/10 02:12:25;;;;;;;;;;;24.60;99.90;;;;;;4590728;19;19919;-24
2023/06/10 02:13:56;;;;;;;;;;;24.60;99.90;;;;;;4590150;19;20230;-26
2023/06/10 02:15:27;;;;;;;;;;;24.70;99.90;;;;;;4589598;19;19919;-25
2023/06/10 02:16:58;;;;;;;;;;;24.70;99.90;;;;;;4590293;19;19922;-29
2023/06/10 02:18:29;;;;;;;;;;;24.90;99.90;;;;;;4589800;19;19919;-25
2023/06/10 02:20:06;;;;;;;;;;;25.00;99.90;;;;;;4589406;19;19926;-27
2023/06/10 02:21:37;;;;;;;;;;;25.10;99.90;;;;;;4590198;19;19919;-27
2023/06/10 02:23:07;;;;;;;;;;;25.10;99.90;;;;;;4589774;19;20351;-24
2023/06/10 02:24:39;;;;;;;;;;;25.20;99.90;;;;;;4589721;19;20359;-23
2023/06/10 02:26:10;;;;;;;;;;;25.30;99.90;;;;;;4589508;19;20268;-24
2023/06/10 02:27:41;;;;;;;;;;;25.30;99.90;;;;;;4591390;19;20321;-25
2023/06/10 02:29:13;;;;;;;;;;;25.30;99.90;;;;;;4594323;19;19933;-25
2023/06/10 02:30:45;;;;;;;;;;;25.40;99.90;;;;;;4594454;19;19919;-23
2023/06/10 02:32:15;;;;;;;;;;;25.40;99.90;;;;;;4593899;19;20240;-29
2023/06/10 02:33:47;;;;;;;;;;;25.40;99.90;;;;;;4594117;19;19926;-26
2023/06/10 02:35:18;;;;;;;;;;;25.40;99.90;;;;;;4593639;19;20244;-26
2023/06/10 02:36:51;;;;;;;;;;;25.40;99.90;;;;;;4592993;19;20248;-25
2023/06/10 02:38:22;;;;;;;;;;;25.50;99.90;;;;;;4594158;19;20334;-27
2023/06/10 02:39:53;;;;;;;;;;;25.50;99.90;;;;;;4593711;19;19910;-25
2023/06/10 02:41:24;;;;;;;;;;;25.50;99.90;;;;;;4593988;19;19945;-29
2023/06/10 02:42:57;;;;;;;;;;;25.50;99.90;;;;;;4594772;19;19911;-27
2023/06/10 02:44:31;;;;;;;;;;;25.50;99.90;;;;;;4593943;19;19915;-24
2023/06/10 02:46:02;;;;;;;;;;;25.50;99.90;;;;;;4594226;19;19935;-26
2023/06/10 02:47:33;;;;;;;;;;;25.40;99.90;;;;;;4594099;19;19923;-25
2023/06/10 02:49:04;;;;;;;;;;;25.40;99.90;;;;;;4594561;19;20347;-26
2023/06/10 02:50:35;;;;;;;;;;;25.40;99.90;;;;;;4594401;19;19911;-25
2023/06/10 02:52:08;;;;;;;;;;;25.30;99.90;;;;;;4594810;19;19932;-28
2023/06/10 02:53:38;;;;;;;;;;;25.20;99.90;;;;;;4593125;19;20316;-25
2023/06/10 02:55:10;;;;;;;;;;;25.10;99.90;;;;;;4592489;19;19930;-24
2023/06/10 02:56:44;;;;;;;;;;;25.00;99.90;;;;;;4593387;19;20279;-26
2023/06/10 02:58:15;;;;;;;;;;;24.90;99.90;;;;;;4593817;19;19915;-29
2023/06/10 02:59:46;;;;;;;;;;;24.80;99.20;;;;;;4593549;19;19919;-27
2023/06/10 03:01:18;;;;;;;;;;;24.60;99.30;;;;;;4594287;19;20313;-25
2023/06/10 03:02:50;;;;;;;;;;;24.40;99.40;;;;;;4593283;19;19915;-28
2023/06/10 03:04:25;;;;;;;;;;;24.30;99.60;;;;;;4593502;19;19925;-24
2023/06/10 03:05:58;;;;;;;;;;;24.20;99.70;;;;;;4592925;19;20259;-26
2023/06/10 03:07:30;;;;;;;;;;;24.10;99.90;;;;;;4592156;19;19926;-25
2023/06/10 03:09:01;;;;;;;;;;;24.00;99.90;;;;;;4593135;19;20380;-26
2023/06/10 03:10:32;;;;;;;;;;;23.90;99.90;;;;;;4593408;19;19926;-25
2023/06/10 03:12:04;;;;;;;;;;;23.90;99.90;;;;;;4593160;19;19941;-25
2023/06/10 03:13:35;;;;;;;;;;;23.80;99.90;;;;;;4593486;19;19926;-24
2023/06/10 03:15:07;;;;;;;;;;;23.80;99.90;;;;;;4592224;19;20241;-25
2023/06/10 03:16:43;;;;;;;;;;;23.80;99.90;;;;;;4593471;19;19938;-26
2023/06/10 03:18:14;;;;;;;;;;;23.80;99.90;;;;;;4592914;19;19919;-25
2023/06/10 03:19:45;;;;;;;;;;;23.70;99.90;;;;;;4593265;19;19918;-27
2023/06/10 03:21:16;;;;;;;;;;;23.70;99.90;;;;;;4591659;19;19926;-25
2023/06/10 03:22:47;;;;;;;;;;;23.70;99.90;;;;;;4592058;19;19926;-24
2023/06/10 03:24:18;;;;;;;;;;;23.70;99.90;;;;;;4593193;19;19922;-24
2023/06/10 03:25:54;;;;;;;;;;;23.70;99.90;;;;;;4592984;19;19911;-25
2023/06/10 03:27:25;;;;;;;;;;;23.60;99.90;;;;;;4593774;19;20256;-25
2023/06/10 03:28:58;;;;;;;;;;;23.60;99.90;;;;;;4592930;19;20362;-23
2023/06/10 03:30:29;;;;;;;;;;;23.60;99.90;;;;;;4593277;19;19927;-27
2023/06/10 03:32:00;;;;;;;;;;;23.60;99.90;;;;;;4592988;19;19931;-27
2023/06/10 03:33:32;;;;;;;;;;;23.60;99.90;;;;;;4593409;19;19919;-28
2023/06/10 03:35:03;;;;;;;;;;;23.60;99.90;;;;;;4591938;19;19922;-24
2023/06/10 03:36:34;;;;;;;;;;;23.50;99.90;;;;;;4593051;19;19985;-24
2023/06/10 03:38:06;;;;;;;;;;;23.50;99.90;;;;;;4593112;19;20359;-24
2023/06/10 03:39:36;;;;;;;;;;;23.50;99.90;;;;;;4591597;19;19934;-26
2023/06/10 03:41:07;;;;;;;;;;;23.50;99.90;;;;;;4591664;19;19915;-22
2023/06/10 03:42:39;;;;;;;;;;;23.50;99.90;;;;;;4592808;19;19944;-24
2023/06/10 03:44:10;;;;;;;;;;;23.50;99.90;;;;;;4592780;19;19911;-24
2023/06/10 03:45:42;;;;;;;;;;;23.50;99.90;;;;;;4593136;19;20368;-24
2023/06/10 03:47:14;;;;;;;;;;;23.50;99.90;;;;;;4592556;19;19938;-29
2023/06/10 03:48:45;;;;;;;;;;;23.50;99.90;;;;;;4592668;19;19915;-28
2023/06/10 03:50:19;;;;;;;;;;;23.40;99.90;;;;;;4592771;19;19918;-24
2023/06/10 03:51:50;;;;;;;;;;;23.40;99.90;;;;;;4592713;19;19926;-25
2023/06/10 03:53:21;;;;;;;;;;;23.40;99.90;;;;;;4592534;19;19919;-23
2023/06/10 03:54:52;;;;;;;;;;;23.40;99.90;;;;;;4592547;19;19915;-28
2023/06/10 03:56:23;;;;;;;;;;;23.40;99.90;;;;;;4592658;19;19930;-24
2023/06/10 03:57:54;;;;;;;;;;;23.40;99.90;;;;;;4592864;19;19935;-26
2023/06/10 03:59:25;;;;;;;;;;;23.40;99.90;;;;;;4592581;19;20513;-25
2023/06/10 04:00:56;;;;;;;;;;;23.40;99.90;;;;;;4591555;19;19937;-28
2023/06/10 04:02:28;;;;;;;;;;;23.40;99.90;;;;;;4592199;19;19915;-25
2023/06/10 04:04:01;;;;;;;;;;;23.40;99.90;;;;;;4592459;19;20347;-24
2023/06/10 04:05:32;;;;;;;;;;;23.40;99.90;;;;;;4591641;19;19963;-24
2023/06/10 04:07:04;;;;;;;;;;;23.40;99.90;;;;;;4590530;19;19926;-26
2023/06/10 04:08:35;;;;;;;;;;;23.40;99.90;;;;;;4591459;19;19947;-25
2023/06/10 04:10:07;;;;;;;;;;;23.40;99.90;;;;;;4591704;19;19926;-23
2023/06/10 04:11:38;;;;;;;;;;;23.40;99.90;;;;;;4592821;19;20312;-26
2023/06/10 04:13:09;;;;;;;;;;;23.30;99.90;;;;;;4591937;19;19945;-23
2023/06/10 04:14:41;;;;;;;;;;;23.40;99.90;;;;;;4592201;19;19915;-24
2023/06/10 04:16:11;;;;;;;;;;;23.30;99.90;;;;;;4592144;19;20344;-27
2023/06/10 04:17:43;;;;;;;;;;;23.30;99.90;;;;;;4592742;19;19919;-27
2023/06/10 04:23:42;;;;;;;;;;;23.40;99.90;;;;;;4591942;19;19911;-24
2023/06/10 04:25:14;;;;;;;;;;;23.40;99.90;;;;;;4591652;19;20364;-24
2023/06/10 04:26:45;;;;;;;;;;;23.40;99.90;;;;;;4592362;19;19923;-22
2023/06/10 04:28:16;;;;;;;;;;;23.30;99.90;;;;;;4591944;19;20007;-26
2023/06/10 04:29:47;;;;;;;;;;;23.30;99.90;;;;;;4591883;19;19926;-23
2023/06/10 04:31:18;;;;;;;;;;;23.30;99.90;;;;;;4591523;19;19974;-27
2023/06/10 04:32:49;;;;;;;;;;;23.30;99.90;;;;;;4592285;19;19918;-26
2023/06/10 04:34:20;;;;;;;;;;;23.30;99.90;;;;;;4590593;19;19921;-24
2023/06/10 04:35:51;;;;;;;;;;;23.30;99.90;;;;;;4590450;19;20434;-23
2023/06/10 04:37:22;;;;;;;;;;;23.30;99.90;;;;;;4591452;19;19911;-22
2023/06/10 04:38:53;;;;;;;;;;;23.30;99.90;;;;;;4592137;19;19918;-23
2023/06/10 04:40:24;;;;;;;;;;;23.30;99.90;;;;;;4591766;19;19926;-23
2023/06/10 04:41:55;;;;;;;;;;;23.30;99.90;;;;;;4591600;19;19918;-24
2023/06/10 04:43:28;;;;;;;;;;;23.30;99.90;;;;;;4591206;19;19922;-27
2023/06/10 04:44:59;;;;;;;;;;;23.30;99.90;;;;;;4591651;19;19917;-24
2023/06/10 04:46:31;;;;;;;;;;;23.30;99.90;;;;;;4591234;19;19923;-26
2023/06/10 04:48:03;;;;;;;;;;;23.30;99.90;;;;;;4591832;19;19922;-24
2023/06/10 04:49:35;;;;;;;;;;;23.30;99.90;;;;;;4590486;19;19923;-27
2023/06/10 04:51:06;;;;;;;;;;;23.30;99.90;;;;;;4589753;19;20356;-28
2023/06/10 04:52:37;;;;;;;;;;;23.30;99.90;;;;;;4590828;19;19982;-24
2023/06/10 04:54:08;;;;;;;;;;;23.30;99.90;;;;;;4591473;19;19922;-24
2023/06/10 04:55:39;;;;;;;;;;;23.30;99.90;;;;;;4591133;19;20324;-26
2023/06/10 04:57:11;;;;;;;;;;;23.30;99.90;;;;;;4590392;19;19915;-28
2023/06/10 04:58:43;;;;;;;;;;;23.30;99.90;;;;;;4590974;19;19925;-23
2023/06/10 05:00:14;;;;;;;;;;;23.30;99.90;;;;;;4590894;19;19918;-27
2023/06/10 05:01:46;;;;;;;;;;;23.40;99.90;;;;;;4592094;19;19923;-28
2023/06/10 05:03:16;;;;;;;;;;;23.40;99.90;;;;;;4591012;19;19936;-26
2023/06/10 05:04:47;;;;;;;;;;;23.40;99.90;;;;;;4591481;19;19922;-29
2023/06/10 05:06:19;;;;;;;;;;;23.30;99.90;;;;;;4590219;19;20346;-21
2023/06/10 05:07:52;;;;;;;;;;;23.30;99.90;;;;;;4591430;19;20347;-24
2023/06/10 05:09:26;;;;;;;;;;;23.30;99.90;;;;;;4590764;19;19911;-23
2023/06/10 05:10:58;;;;;;;;;;;23.30;99.90;;;;;;4591021;19;19922;-22
2023/06/10 05:12:31;;;;;;;;;;;23.30;99.90;;;;;;4590987;19;19911;-23
2023/06/10 05:14:05;;;;;;;;;;;23.30;99.90;;;;;;4590228;19;19919;-26
2023/06/10 05:15:36;;;;;;;;;;;23.30;99.90;;;;;;4589422;19;19915;-25
2023/06/10 05:17:09;;;;;;;;;;;23.30;99.90;;;;;;4591126;19;20265;-22
2023/06/10 05:18:40;;;;;;;;;;;23.30;99.90;;;;;;4590818;19;19915;-26
2023/06/10 05:20:11;;;;;;;;;;;23.30;99.90;;;;;;4591423;19;19918;-26
2023/06/10 05:21:42;;;;;;;;;;;23.30;99.90;;;;;;4590661;19;19937;-23
2023/06/10 05:23:13;;;;;;;;;;;23.40;99.90;;;;;;4590986;19;19914;-24
2023/06/10 05:24:44;;;;;;;;;;;23.40;99.90;;;;;;4591471;19;19914;-23
2023/06/10 05:26:16;;;;;;;;;;;23.40;99.90;;;;;;4590742;19;19915;-23
2023/06/10 05:27:46;;;;;;;;;;;23.30;99.90;;;;;;4590848;19;19915;-24
2023/06/10 05:29:18;;;;;;;;;;;23.40;99.90;;;;;;4590457;19;19923;-25
2023/06/10 05:30:51;;;;;;;;;;;23.40;99.90;;;;;;4591254;19;19918;-23
2023/06/10 05:32:23;;;;;;;;;;;23.40;99.90;;;;;;4590840;19;19919;-24
2023/06/10 05:33:54;;;;;;;;;;;23.30;99.90;;;;;;4590667;19;19923;-23
2023/06/10 05:35:27;;;;;;;;;;;23.30;99.90;;;;;;4588331;19;19933;-27
2023/06/10 05:36:58;;;;;;;;;;;23.30;99.90;;;;;;4590819;19;19911;-24
2023/06/10 05:38:29;;;;;;;;;;;23.30;99.90;;;;;;4590302;19;20252;-24
2023/06/10 05:40:00;;;;;;;;;;;23.30;99.90;;;;;;4590878;19;19911;-23
2023/06/10 05:41:35;;;;;;;;;;;23.30;99.90;;;;;;4589131;19;19914;-25
2023/06/10 05:43:06;;;;;;;;;;;23.30;99.90;;;;;;4590499;19;19915;-25
2023/06/10 05:44:37;;;;;;;;;;;23.30;99.90;;;;;;4590251;19;20028;-23
2023/06/10 05:46:09;;;;;;;;;;;23.30;99.90;;;;;;4589337;19;19948;-24
2023/06/10 05:47:41;;;;;;;;;;;23.30;99.90;;;;;;4589795;19;20268;-25
2023/06/10 05:49:12;;;;;;;;;;;23.30;99.90;;;;;;4589704;19;19931;-24
2023/06/10 05:50:48;;;;;;;;;;;23.30;99.90;;;;;;4590240;19;20316;-25
2023/06/10 05:52:19;;;;;;;;;;;23.30;99.90;;;;;;4590606;19;19919;-27
2023/06/10 05:53:50;;;;;;;;;;;23.40;99.90;;;;;;4590641;19;19915;-24
2023/06/10 05:55:22;;;;;;;;;;;23.40;99.90;;;;;;4589655;19;20243;-27
2023/06/10 05:56:53;;;;;;;;;;;23.30;99.90;;;;;;4590227;19;19915;-24
2023/06/10 05:58:24;;;;;;;;;;;23.30;99.90;;;;;;4590253;19;19919;-24
2023/06/10 05:59:57;;;;;;;;;;;23.40;99.90;;;;;;4590233;19;19929;-23
2023/06/10 06:01:29;;;;;;;;;;;23.40;99.90;;;;;;4590318;19;19926;-24
2023/06/10 06:03:03;;;;;;;;;;;23.30;99.90;;;;;;4592745;19;19926;-23
2023/06/10 06:04:37;;;;;;;;;;;23.30;99.90;;;;;;4594537;19;20276;-29
2023/06/10 06:06:09;;;;;;;;;;;23.30;99.90;;;;;;4593327;19;19930;-23
2023/06/10 06:07:42;;;;;;;;;;;23.30;99.90;;;;;;4594048;19;19914;-24
2023/06/10 06:09:12;;;;;;;;;;;23.30;99.90;;;;;;4594606;19;19922;-24
2023/06/10 06:10:47;;;;;;;;;;;23.30;99.90;;;;;;4593189;19;19922;-25
2023/06/10 06:12:18;;;;;;;;;;;23.30;99.90;;;;;;4594911;19;19922;-24
2023/06/10 06:13:49;;;;;;;;;;;23.30;99.90;;;;;;4594270;19;19974;-24
2023/06/10 06:15:21;;;;;;;;;;;23.30;99.90;;;;;;4593837;19;19942;-24
2023/06/10 06:16:52;;;;;;;;;;;23.20;99.90;;;;;;4594436;19;19966;-28
2023/06/10 06:18:23;;;;;;;;;;;23.30;99.90;;;;;;4595058;19;19915;-26
2023/06/10 06:19:54;;;;;;;;;;;23.30;99.90;;;;;;4594203;19;19915;-26
2023/06/10 06:21:25;;;;;;;;;;;23.30;99.90;;;;;;4594887;19;19970;-23
2023/06/10 06:22:56;;;;;;;;;;;23.40;99.90;;;;;;4594544;19;19925;-28
2023/06/10 06:24:27;;;;;;;;;;;23.30;99.90;;;;;;4594720;19;20333;-23
2023/06/10 06:25:58;;;;;;;;;;;23.30;99.90;;;;;;4594611;19;19915;-27
2023/06/10 06:27:29;;;;;;;;;;;23.20;99.90;;;;;;4594566;19;19929;-26
2023/06/10 06:29:00;;;;;;;;;;;23.20;99.90;;;;;;4593207;19;19915;-24
2023/06/10 06:30:31;;;;;;;;;;;23.20;99.90;;;;;;4593952;19;20256;-26
2023/06/10 06:32:02;;;;;;;;;;;23.20;99.90;;;;;;4594392;19;19926;-24
2023/06/10 06:33:34;;;;;;;;;;;23.20;99.90;;;;;;4593961;19;19941;-24
2023/06/10 06:35:07;;;;;;;;;;;23.30;99.90;;;;;;4593033;19;20239;-27
2023/06/10 06:36:38;;;;;;;;;;;23.30;99.90;;;;;;4593713;19;19923;-25
2023/06/10 06:38:10;;;;;;;;;;;23.30;99.90;;;;;;4594608;19;19918;-24
2023/06/10 06:39:40;;;;;;;;;;;23.30;99.90;;;;;;4593988;19;19919;-23
2023/06/10 06:41:11;;;;;;;;;;;23.30;99.90;;;;;;4594785;19;19918;-24
2023/06/10 06:42:43;;;;;;;;;;;23.40;99.90;;;;;;4593827;19;19922;-27
2023/06/10 06:44:14;;;;;;;;;;;23.40;99.90;;;;;;4594715;19;20384;-24
2023/06/10 06:45:45;;;;;;;;;;;23.40;99.90;;;;;;4594261;19;19937;-24
2023/06/10 06:47:19;;;;;;;;;;;23.50;99.90;;;;;;4594220;19;19940;-24
2023/06/10 06:48:50;;;;;;;;;;;23.50;99.90;;;;;;4593786;19;19915;-24
2023/06/10 06:50:22;;;;;;;;;;;23.50;99.90;;;;;;4594002;19;19915;-27
2023/06/10 06:51:53;;;;;;;;;;;23.60;99.90;;;;;;4593605;19;20694;-26
2023/06/10 06:53:26;;;;;;;;;;;23.60;99.90;;;;;;4593680;19;19911;-24
2023/06/10 06:55:00;;;;;;;;;;;23.60;99.90;;;;;;4592855;19;19914;-24
2023/06/10 06:56:31;;;;;;;;;;;23.50;99.90;;;;;;4593083;19;19923;-24
2023/06/10 06:58:03;;;;;;;;;;;23.50;99.90;;;;;;4593457;19;19949;-25
2023/06/10 06:59:35;;;;;;;;;;;23.50;99.90;;;;;;4593736;19;19911;-24
2023/06/10 07:01:07;;;;;;;;;;;23.50;99.90;;;;;;4593540;19;19919;-25
2023/06/10 07:02:38;;;;;;;;;;;23.50;99.90;;;;;;4593571;19;19914;-24
2023/06/10 07:04:10;;;;;;;;;;;23.60;99.90;;;;;;4594002;19;19934;-27
2023/06/10 07:05:41;;;;;;;;;;;23.50;99.90;;;;;;4592999;19;19927;-24
2023/06/10 07:07:12;;;;;;;;;;;23.60;99.90;;;;;;4592990;19;19941;-24
2023/06/10 07:08:45;;;;;;;;;;;23.60;99.90;;;;;;4593634;19;20224;-28
2023/06/10 07:10:16;;;;;;;;;;;23.60;99.90;;;;;;4594116;19;19918;-25
2023/06/10 07:11:48;;;;;;;;;;;23.50;99.90;;;;;;4593248;19;19919;-25
2023/06/10 07:13:19;;;;;;;;;;;23.50;99.90;;;;;;4594050;19;19923;-27
2023/06/10 07:14:51;;;;;;;;;;;23.50;99.90;;;;;;4590790;19;19922;-22
2023/06/10 07:16:22;;;;;;;;;;;23.30;99.90;;;;;;4593560;19;19907;-24
2023/06/10 07:17:52;;;;;;;;;;;23.40;99.90;;;;;;4593327;19;19941;-23
2023/06/10 07:19:25;;;;;;;;;;;23.50;99.90;;;;;;4591032;19;19978;-23
2023/06/10 07:20:56;;;;;;;;;;;23.40;99.90;;;;;;4592228;19;19919;-24
2023/06/10 07:22:27;;;;;;;;;;;23.40;99.90;;;;;;4592142;19;19988;-24
2023/06/10 07:23:58;;;;;;;;;;;23.50;99.90;;;;;;4592126;19;19919;-24
2023/06/10 07:25:30;;;;;;;;;;;23.50;99.90;;;;;;4593605;19;19997;-24
2023/06/10 07:27:01;;;;;;;;;;;23.50;99.90;;;;;;4592954;19;19922;-24
2023/06/10 07:28:32;;;;;;;;;;;23.40;99.90;;;;;;4593263;19;20279;-26
2023/06/10 07:30:06;;;;;;;;;;;23.50;99.90;;;;;;4593079;19;19927;-27
2023/06/10 07:31:37;;;;;;;;;;;23.50;99.90;;;;;;4592493;19;20364;-26
2023/06/10 07:33:10;;;;;;;;;;;23.50;99.90;;;;;;4592481;19;19926;-26
2023/06/10 07:34:43;;;;;;;;;;;23.50;99.90;;;;;;4592997;19;20229;-23
2023/06/10 22:36:57;;;;;;;;;;;23.60;92.40;;;;;;4584480;19;19911;-23
2023/06/10 22:38:30;;;;;;;;;;;23.80;95.80;;;;;;4588560;19;19918;-21
2023/06/10 22:40:02;;;;;;;;;;;22.50;88.10;;;;;;4588228;19;19922;-23
2023/06/10 22:41:33;;;;;;;;;;;20.90;90.20;;;;;;4587810;19;19922;-25
2023/06/10 22:43:06;;;;;;;;;;;19.90;91.40;;;;;;4589889;19;19923;-22
2023/06/10 22:44:37;;;;;;;;;;;19.40;91.60;;;;;;4589918;19;19943;-24
2023/06/10 22:46:08;;;;;;;;;;;19.10;92.10;;;;;;4594557;19;19914;-25
2023/06/10 22:47:39;;;;;;;;;;;18.80;92.60;;;;;;4593891;19;19915;-28
2023/06/10 22:49:11;;;;;;;;;;;18.70;92.50;;;;;;4594452;19;20313;-23
2023/06/10 22:50:45;;;;;;;;;;;18.60;93.10;;;;;;4593043;19;19915;-23
2023/06/10 23:09:09;;;;;;;;;;;18.30;93.80;;;;;;4595938;19;19915;-25
2023/06/10 23:10:47;;;;;;;;;;;18.30;94.00;;;;;;4592850;19;19983;-30
2023/06/10 23:12:20;;;;;;;;;;;18.30;94.00;;;;;;4592008;19;20333;-26
2023/06/10 23:13:53;;;;;;;;;;;18.30;93.80;;;;;;4593391;19;19933;-23
2023/06/10 23:15:24;;;;;;;;;;;18.30;93.80;;;;;;4595352;19;20377;-26
2023/06/10 23:16:56;;;;;;;;;;;18.30;94.10;;;;;;4592560;19;20257;-27
2023/06/10 23:18:26;;;;;;;;;;;18.30;94.20;;;;;;4592729;19;19939;-28
2023/06/10 23:19:58;;;;;;;;;;;18.30;94.30;;;;;;4593950;19;19947;-24
2023/06/10 23:21:33;;;;;;;;;;;18.30;94.10;;;;;;4593692;19;19918;-26
2023/06/10 23:23:06;;;;;;;;;;;18.20;93.70;;;;;;4593286;19;19919;-24
2023/06/10 23:24:40;;;;;;;;;;;18.30;93.60;;;;;;4593473;19;19999;-26
2023/06/10 23:26:11;;;;;;;;;;;18.30;94.00;;;;;;4592838;19;19982;-25
2023/06/10 23:27:43;;;;;;;;;;;18.30;94.30;;;;;;4592703;19;19971;-26
2023/06/10 23:29:15;;;;;;;;;;;18.30;94.00;;;;;;4592817;19;20271;-25
2023/06/10 23:30:46;;;;;;;;;;;18.30;94.30;;;;;;4592930;19;19917;-30
2023/06/10 23:32:19;;;;;;;;;;;18.20;94.00;;;;;;4593521;19;20335;-25
2023/06/10 23:33:50;;;;;;;;;;;18.30;94.00;;;;;;4593196;19;19922;-25
2023/06/10 23:35:22;;;;;;;;;;;18.30;94.10;;;;;;4593182;19;20328;-25
2023/06/10 23:36:53;;;;;;;;;;;18.20;94.20;;;;;;4592217;19;19923;-24
2023/06/10 23:38:25;;;;;;;;;;;18.20;94.70;;;;;;4592322;19;19919;-26
2023/06/10 23:39:59;;;;;;;;;;;18.20;94.50;;;;;;4593621;19;20259;-25
2023/06/10 23:41:32;;;;;;;;;;;18.20;94.20;;;;;;4592474;19;19915;-25
2023/06/10 23:43:03;;;;;;;;;;;18.20;94.20;;;;;;4593490;19;19918;-24
2023/06/10 23:44:34;;;;;;;;;;;18.10;94.50;;;;;;4593879;19;19938;-24
2023/06/10 23:46:06;;;;;;;;;;;18.10;94.90;;;;;;4593539;19;19918;-27
2023/06/10 23:47:37;;;;;;;;;;;18.10;94.50;;;;;;4593528;19;20301;-25
2023/06/10 23:49:09;;;;;;;;;;;18.10;94.10;;;;;;4591489;19;19979;-27
2023/06/10 23:50:40;;;;;;;;;;;18.10;94.50;;;;;;4592300;19;19922;-23
2023/06/10 23:52:13;;;;;;;;;;;18.10;94.60;;;;;;4592812;19;19915;-25
2023/06/10 23:53:44;;;;;;;;;;;18.10;93.90;;;;;;4591614;19;19933;-26
2023/06/10 23:55:15;;;;;;;;;;;18.10;94.90;;;;;;4592573;19;19919;-25
2023/06/10 23:56:48;;;;;;;;;;;18.10;94.30;;;;;;4592243;19;19926;-24
2023/06/10 23:58:19;;;;;;;;;;;18.00;94.40;;;;;;4593147;19;19927;-23
2023/06/10 23:59:50;;;;;;;;;;;18.00;94.80;;;;;;4593447;19;19918;-23
